createdAt,value
2023-05-22T00:00:14.588Z,99.5
2023-05-22T00:01:23.715Z,99.5
2023-05-22T00:02:32.887Z,99.5
2023-05-22T00:03:42.056Z,99.5
2023-05-22T00:04:51.246Z,99.5
2023-05-22T00:06:00.406Z,99.5
2023-05-22T00:07:08.602Z,99.5
2023-05-22T00:08:17.764Z,99.5
2023-05-22T00:09:26.941Z,99.5
2023-05-22T00:10:36.104Z,99.5
2023-05-22T00:11:45.288Z,99.5
2023-05-22T00:12:54.449Z,99.5
2023-05-22T00:14:03.690Z,99.5
2023-05-22T00:15:12.802Z,99.5
2023-05-22T00:16:21.985Z,99.5
2023-05-22T00:18:40.333Z,99.5
2023-05-22T00:19:49.496Z,99.5
2023-05-22T00:20:58.653Z,99.5
2023-05-22T00:22:06.908Z,99.5
2023-05-22T00:23:16.017Z,99.5
2023-05-22T00:24:25.176Z,98.5
2023-05-22T00:25:34.357Z,98.5
2023-05-22T00:26:43.539Z,98.5
2023-05-22T00:27:52.702Z,98.5
2023-05-22T00:29:01.913Z,98
2023-05-22T00:30:11.072Z,98.5
2023-05-22T00:31:20.240Z,97.5
2023-05-22T00:32:29.406Z,97.5
2023-05-22T00:33:38.605Z,96.5
2023-05-22T00:34:47.738Z,96.5
2023-05-22T00:35:56.936Z,96.5
2023-05-22T00:37:05.120Z,97.5
2023-05-22T00:38:14.275Z,97.5
2023-05-22T00:39:23.452Z,98
2023-05-22T00:40:32.622Z,98.5
2023-05-22T00:41:41.865Z,98.5
2023-05-22T00:42:50.995Z,99.5
2023-05-22T00:44:00.144Z,99.5
2023-05-22T00:45:09.317Z,99
2023-05-22T00:46:18.481Z,98.5
2023-05-22T00:47:26.677Z,98.5
2023-05-22T00:49:45.010Z,99.5
2023-05-22T00:50:54.193Z,99
2023-05-22T00:52:03.358Z,99
2023-05-22T00:53:12.536Z,99.5
2023-05-22T00:54:21.713Z,99.5
2023-05-22T00:55:30.896Z,99.5
2023-05-22T00:56:39.076Z,99.5
2023-05-22T00:57:47.272Z,99.5
2023-05-22T00:58:56.463Z,99.5
2023-05-22T01:00:05.650Z,99.5
2023-05-22T01:01:14.878Z,99.5
2023-05-22T01:02:23.961Z,99.5
2023-05-22T01:03:33.123Z,99.5
2023-05-22T01:04:42.310Z,99.5
2023-05-22T01:05:51.478Z,99.5
2023-05-22T01:07:00.653Z,99.5
2023-05-22T01:08:09.818Z,99.5
2023-05-22T01:09:19.001Z,99.5
2023-05-22T01:10:28.185Z,99.5
2023-05-22T01:11:37.391Z,99.5
2023-05-22T01:12:45.526Z,99.5
2023-05-22T01:13:54.701Z,99.5
2023-05-22T01:15:03.877Z,99.5
2023-05-22T01:16:13.045Z,99.5
2023-05-22T01:17:22.216Z,99.5
2023-05-22T01:18:31.388Z,99.5
2023-05-22T01:19:40.556Z,99.5
2023-05-22T01:20:49.727Z,99.5
2023-05-22T01:21:58.906Z,99.5
2023-05-22T01:23:08.143Z,99.5
2023-05-22T01:24:17.248Z,99.5
2023-05-22T01:25:26.412Z,99.5
2023-05-22T01:26:35.623Z,99.5
2023-05-22T01:27:43.776Z,99.5
2023-05-22T01:28:52.954Z,99.5
2023-05-22T01:30:02.126Z,99.5
2023-05-22T01:31:11.327Z,99.5
2023-05-22T01:32:20.482Z,99.5
2023-05-22T01:33:29.643Z,99.5
2023-05-22T01:34:38.834Z,99.5
2023-05-22T01:35:47.998Z,99.5
2023-05-22T01:36:57.162Z,99.5
2023-05-22T01:38:06.344Z,99.5
2023-05-22T01:39:15.504Z,99.5
2023-05-22T01:40:24.690Z,99.5
2023-05-22T01:41:33.854Z,99.5
2023-05-22T01:42:42.038Z,99.5
2023-05-22T01:43:51.214Z,99.5
2023-05-22T01:45:00.408Z,99.5
2023-05-22T01:46:09.593Z,99.5
2023-05-22T01:48:27.899Z,99.5
2023-05-22T01:49:37.141Z,99.5
2023-05-22T01:50:46.249Z,99.5
2023-05-22T01:51:55.433Z,99.5
2023-05-22T01:53:04.584Z,99.5
2023-05-22T01:54:13.772Z,99.5
2023-05-22T01:55:22.939Z,99.5
2023-05-22T01:56:32.117Z,99.5
2023-05-22T01:57:40.291Z,99.5
2023-05-22T01:58:49.478Z,99.5
2023-05-22T01:59:58.637Z,99.5
2023-05-22T02:01:07.908Z,99.5
2023-05-22T02:02:16.973Z,99.5
2023-05-22T02:03:26.183Z,99.5
2023-05-22T02:04:35.361Z,99.5
2023-05-22T02:05:44.502Z,99.5
2023-05-22T02:06:53.674Z,99.5
2023-05-22T02:08:02.857Z,99.5
2023-05-22T02:09:12.035Z,99.5
2023-05-22T02:10:21.199Z,99.5
2023-05-22T02:11:30.373Z,99.5
2023-05-22T02:12:38.565Z,99.5
2023-05-22T02:13:47.738Z,99.5
2023-05-22T02:14:56.946Z,99.5
2023-05-22T02:16:06.082Z,99.5
2023-05-22T02:17:15.249Z,99.5
2023-05-22T02:18:24.429Z,99.5
2023-05-22T02:19:33.583Z,99.5
2023-05-22T02:20:42.767Z,99.5
2023-05-22T02:21:51.934Z,99.5
2023-05-22T02:23:01.115Z,99.5
2023-05-22T02:24:10.283Z,99.5
2023-05-22T02:25:19.503Z,99.5
2023-05-22T02:26:28.632Z,99.5
2023-05-22T02:27:36.836Z,99.5
2023-05-22T02:28:45.995Z,99.5
2023-05-22T02:29:55.182Z,99.5
2023-05-22T02:31:04.353Z,99.5
2023-05-22T02:32:13.507Z,99.5
2023-05-22T02:33:22.681Z,99.5
2023-05-22T02:34:31.870Z,99.5
2023-05-22T02:35:41.016Z,99.5
2023-05-22T02:36:50.201Z,99.5
2023-05-22T02:37:59.362Z,99.5
2023-05-22T02:39:07.553Z,99.5
2023-05-22T02:40:15.761Z,99.5
2023-05-22T02:41:23.947Z,99.5
2023-05-22T02:42:33.124Z,99.5
2023-05-22T02:43:42.294Z,99.5
2023-05-22T02:44:51.476Z,99.5
2023-05-22T02:46:00.632Z,99.5
2023-05-22T02:47:09.802Z,99.5
2023-05-22T02:48:18.986Z,99.5
2023-05-22T02:49:28.155Z,99.5
2023-05-22T02:50:37.312Z,99.5
2023-05-22T02:51:46.496Z,99.5
2023-05-22T02:52:55.671Z,99.5
2023-05-22T02:54:04.827Z,99.5
2023-05-22T02:55:14.011Z,99.5
2023-05-22T02:56:22.188Z,99.5
2023-05-22T02:57:31.379Z,99.5
2023-05-22T02:58:40.530Z,99.5
2023-05-22T02:59:49.712Z,99.5
2023-05-22T03:00:58.889Z,99.5
2023-05-22T03:02:08.055Z,99.5
2023-05-22T03:03:17.226Z,99.5
2023-05-22T03:04:26.407Z,99.5
2023-05-22T03:05:35.578Z,99.5
2023-05-22T03:06:44.739Z,99.5
2023-05-22T03:07:53.919Z,99.5
2023-05-22T03:09:03.091Z,99.5
2023-05-22T03:10:12.257Z,99.5
2023-05-22T03:11:20.457Z,99.5
2023-05-22T03:12:29.639Z,99.5
2023-05-22T03:13:38.797Z,99.5
2023-05-22T03:15:57.152Z,99.5
2023-05-22T03:17:06.328Z,99.5
2023-05-22T03:18:15.492Z,99.5
2023-05-22T03:19:24.665Z,99.5
2023-05-22T03:20:33.830Z,99.5
2023-05-22T03:21:43.030Z,99.5
2023-05-22T03:22:52.178Z,99.5
2023-05-22T03:24:01.349Z,99.5
2023-05-22T03:25:10.525Z,99.5
2023-05-22T03:26:18.708Z,99.5
2023-05-22T03:27:27.880Z,99.5
2023-05-22T03:28:37.066Z,99.5
2023-05-22T03:29:46.222Z,99.5
2023-05-22T03:30:55.415Z,99.5
2023-05-22T03:32:04.573Z,99.5
2023-05-22T03:33:13.758Z,99.5
2023-05-22T03:35:32.097Z,99.5
2023-05-22T03:36:41.278Z,99.5
2023-05-22T03:37:50.441Z,99.5
2023-05-22T03:38:59.623Z,99.5
2023-05-22T03:40:08.782Z,99.5
2023-05-22T03:41:16.975Z,99.5
2023-05-22T03:42:26.140Z,99.5
2023-05-22T03:43:35.322Z,99.5
2023-05-22T03:44:44.497Z,99.5
2023-05-22T03:47:01.848Z,99.5
2023-05-22T03:48:10.062Z,99.5
2023-05-22T03:49:18.245Z,99.5
2023-05-22T03:50:27.413Z,99.5
2023-05-22T03:51:36.604Z,99.5
2023-05-22T03:52:45.760Z,99.5
2023-05-22T03:53:54.928Z,99.5
2023-05-22T03:55:04.096Z,99.5
2023-05-22T03:56:13.268Z,99.5
2023-05-22T03:57:22.446Z,99.5
2023-05-22T03:58:31.618Z,99.5
2023-05-22T03:59:40.808Z,99.5
2023-05-22T04:00:49.962Z,99.5
2023-05-22T04:01:59.128Z,99.5
2023-05-22T04:03:08.306Z,99.5
2023-05-22T04:04:16.498Z,99.5
2023-05-22T04:05:25.661Z,99.5
2023-05-22T04:06:34.842Z,99.5
2023-05-22T04:08:53.183Z,99.5
2023-05-22T04:10:02.350Z,99.5
2023-05-22T04:11:11.551Z,99.5
2023-05-22T04:12:20.699Z,99.5
2023-05-22T04:13:29.864Z,99.5
2023-05-22T04:14:39.046Z,99.5
2023-05-22T04:15:48.206Z,99.5
2023-05-22T04:16:57.396Z,99.5
2023-05-22T04:18:06.553Z,99.5
2023-05-22T04:19:14.752Z,99.5
2023-05-22T04:20:23.931Z,99.5
2023-05-22T04:21:33.092Z,99.5
2023-05-22T04:22:41.300Z,99.5
2023-05-22T04:23:49.481Z,99.5
2023-05-22T04:24:57.677Z,99.5
2023-05-22T04:26:06.848Z,99.5
2023-05-22T04:27:16.017Z,99.5
2023-05-22T04:28:25.248Z,99.5
2023-05-22T04:29:34.366Z,99.5
2023-05-22T04:30:43.548Z,99.5
2023-05-22T04:31:52.712Z,99.5
2023-05-22T04:33:01.881Z,99.5
2023-05-22T04:34:11.060Z,99.5
2023-05-22T04:35:20.217Z,99.5
2023-05-22T04:36:29.388Z,99.5
2023-05-22T04:37:38.560Z,99.5
2023-05-22T04:38:46.758Z,99.5
2023-05-22T04:39:55.937Z,99.5
2023-05-22T04:41:05.108Z,99.5
2023-05-22T04:42:14.285Z,99.5
2023-05-22T04:43:23.449Z,99.5
2023-05-22T04:44:32.615Z,99.5
2023-05-22T04:45:41.783Z,99.5
2023-05-22T04:46:50.965Z,99.5
2023-05-22T04:48:00.141Z,99.5
2023-05-22T04:49:09.334Z,99.5
2023-05-22T04:50:18.478Z,99.5
2023-05-22T04:51:27.641Z,99.5
2023-05-22T04:52:36.829Z,99.5
2023-05-22T04:53:45.015Z,99.5
2023-05-22T04:54:54.169Z,99.5
2023-05-22T04:56:03.366Z,99.5
2023-05-22T04:57:12.520Z,99.5
2023-05-22T04:58:21.695Z,99.5
2023-05-22T05:00:40.051Z,99.5
2023-05-22T05:01:49.230Z,99.5
2023-05-22T05:02:58.435Z,99.5
2023-05-22T05:04:07.563Z,99.5
2023-05-22T05:05:16.743Z,99.5
2023-05-22T05:06:25.904Z,99.5
2023-05-22T05:07:35.108Z,99.5
2023-05-22T05:08:44.257Z,99.5
2023-05-22T05:09:52.445Z,99.5
2023-05-22T05:11:01.614Z,99.5
2023-05-22T05:12:10.825Z,99.5
2023-05-22T05:13:19.966Z,99.5
2023-05-22T05:14:29.127Z,99.5
2023-05-22T05:15:38.295Z,99.5
2023-05-22T05:16:47.479Z,99.5
2023-05-22T05:17:56.647Z,99.5
2023-05-22T05:19:05.813Z,99.5
2023-05-22T05:20:15.078Z,99.5
2023-05-22T05:21:24.160Z,99.5
2023-05-22T05:22:33.354Z,99.5
2023-05-22T05:23:42.499Z,99.5
2023-05-22T05:24:50.677Z,99.5
2023-05-22T05:25:59.856Z,99.5
2023-05-22T05:27:09.123Z,99.5
2023-05-22T05:28:18.199Z,99.5
2023-05-22T05:29:27.376Z,99.5
2023-05-22T05:30:35.561Z,99.5
2023-05-22T05:31:43.758Z,99.5
2023-05-22T05:32:52.951Z,99.5
2023-05-22T05:34:02.127Z,99.5
2023-05-22T05:35:11.280Z,99.5
2023-05-22T05:36:20.468Z,99.5
2023-05-22T05:37:29.651Z,99.5
2023-05-22T05:38:38.792Z,99.5
2023-05-22T05:39:47.978Z,99.5
2023-05-22T05:40:57.193Z,98
2023-05-22T05:42:06.362Z,98
2023-05-22T05:43:15.488Z,98.5
2023-05-22T05:44:24.679Z,95.5
2023-05-22T05:45:33.841Z,92.5
2023-05-22T05:46:42.018Z,93.5
2023-05-22T05:47:51.206Z,94.5
2023-05-22T05:49:00.367Z,94.5
2023-05-22T05:50:09.557Z,94
2023-05-22T05:51:18.722Z,93
2023-05-22T05:52:27.893Z,94
2023-05-22T05:53:37.059Z,91.5
2023-05-22T05:54:46.221Z,91.5
2023-05-22T05:55:55.410Z,91
2023-05-22T05:57:04.578Z,91.5
2023-05-22T05:58:13.756Z,91
2023-05-22T05:59:22.945Z,92
2023-05-22T06:00:32.088Z,92
2023-05-22T06:02:49.501Z,92
2023-05-22T06:03:58.621Z,92
2023-05-22T06:05:07.822Z,91.5
2023-05-22T06:06:16.979Z,91
2023-05-22T06:07:26.145Z,88
2023-05-22T06:08:35.339Z,85.5
2023-05-22T06:09:44.491Z,84
2023-05-22T06:10:53.790Z,85
2023-05-22T06:12:02.840Z,85
2023-05-22T06:13:12.006Z,87
2023-05-22T06:14:21.210Z,89
2023-05-22T06:15:30.392Z,89
2023-05-22T06:16:38.550Z,88.5
2023-05-22T06:17:47.742Z,87.5
2023-05-22T06:18:56.893Z,86
2023-05-22T06:20:06.071Z,88
2023-05-22T06:22:24.407Z,92
2023-05-22T06:23:33.575Z,92
2023-05-22T06:24:42.742Z,92
2023-05-22T06:25:51.913Z,91.5
2023-05-22T06:27:01.093Z,91
2023-05-22T06:28:10.298Z,89
2023-05-22T06:29:19.436Z,89
2023-05-22T06:30:28.612Z,87
2023-05-22T06:31:36.814Z,87
2023-05-22T06:32:45.969Z,88
2023-05-22T06:33:55.157Z,88
2023-05-22T06:35:04.339Z,88
2023-05-22T06:36:13.521Z,88
2023-05-22T06:38:31.958Z,89
2023-05-22T06:39:40.030Z,90.5
2023-05-22T06:40:48.387Z,89
2023-05-22T06:41:56.521Z,89
2023-05-22T06:43:05.686Z,89
2023-05-22T06:44:14.751Z,90.5
2023-05-22T06:45:23.937Z,89
2023-05-22T06:46:33.152Z,88
2023-05-22T06:47:42.273Z,88.5
2023-05-22T06:48:51.456Z,88.5
2023-05-22T06:50:00.615Z,89.5
2023-05-22T06:51:09.919Z,90.5
2023-05-22T06:52:18.964Z,90
2023-05-22T06:53:28.198Z,91.5
2023-05-22T06:54:37.309Z,92
2023-05-22T06:55:46.510Z,93
2023-05-22T06:56:54.680Z,91.5
2023-05-22T06:59:13.037Z,93.5
2023-05-22T07:00:22.261Z,91
2023-05-22T07:01:31.377Z,90
2023-05-22T07:02:40.540Z,90.5
2023-05-22T07:03:49.706Z,92
2023-05-22T07:04:58.891Z,91.5
2023-05-22T07:06:08.072Z,90
2023-05-22T07:07:17.241Z,91
2023-05-22T07:08:26.397Z,89.5
2023-05-22T07:09:35.604Z,88.5
2023-05-22T07:10:44.776Z,89.5
2023-05-22T07:13:02.137Z,87.5
2023-05-22T07:14:11.343Z,86
2023-05-22T07:15:20.530Z,86.5
2023-05-22T07:16:29.616Z,85
2023-05-22T07:17:38.841Z,86
2023-05-22T07:18:48.056Z,85.5
2023-05-22T07:19:57.168Z,85
2023-05-22T07:21:06.306Z,84.5
2023-05-22T07:22:15.651Z,82.5
2023-05-22T07:23:24.676Z,82
2023-05-22T07:25:43.002Z,81.5
2023-05-22T07:26:51.198Z,82.5
2023-05-22T07:28:00.354Z,83
2023-05-22T07:29:09.602Z,83
2023-05-22T07:30:18.727Z,84
2023-05-22T07:31:27.928Z,83
2023-05-22T07:32:37.059Z,81
2023-05-22T07:33:46.238Z,79.5
2023-05-22T07:34:55.396Z,78
2023-05-22T07:36:04.632Z,78
2023-05-22T07:37:13.814Z,79
2023-05-22T07:38:23.083Z,80.5
2023-05-22T07:39:32.299Z,80
2023-05-22T07:40:41.402Z,80.5
2023-05-22T07:41:49.567Z,81
2023-05-22T07:42:58.672Z,79.5
2023-05-22T07:44:07.931Z,79
2023-05-22T07:46:26.204Z,78.5
2023-05-22T07:47:35.512Z,81.5
2023-05-22T07:48:44.493Z,81.5
2023-05-22T07:49:53.717Z,82
2023-05-22T07:51:03.003Z,80.5
2023-05-22T07:52:12.104Z,80
2023-05-22T07:53:21.349Z,80
2023-05-22T07:54:30.493Z,77
2023-05-22T07:55:39.509Z,78
2023-05-22T07:56:47.930Z,77
2023-05-22T07:57:57.014Z,75.5
2023-05-22T07:59:06.076Z,73.5
2023-05-22T08:00:15.268Z,76
2023-05-22T08:01:24.403Z,75
2023-05-22T08:02:33.619Z,74.5
2023-05-22T08:03:42.747Z,74.5
2023-05-22T08:04:51.900Z,77
2023-05-22T08:06:01.095Z,78
2023-05-22T08:07:10.252Z,78.5
2023-05-22T08:08:19.421Z,80
2023-05-22T08:09:28.588Z,78.5
2023-05-22T08:10:37.763Z,76.5
2023-05-22T08:11:45.974Z,76
2023-05-22T08:12:55.127Z,74.5
2023-05-22T08:14:04.434Z,75.5
2023-05-22T08:15:13.583Z,76
2023-05-22T08:17:31.826Z,79
2023-05-22T08:18:41.136Z,78.5
2023-05-22T08:19:50.307Z,79
2023-05-22T08:20:59.477Z,78.5
2023-05-22T08:22:08.670Z,80
2023-05-22T08:23:17.704Z,76.5
2023-05-22T08:24:27.069Z,80.5
2023-05-22T08:25:36.094Z,79.5
2023-05-22T08:26:44.368Z,78.5
2023-05-22T08:27:53.400Z,78.5
2023-05-22T08:29:02.736Z,77
2023-05-22T08:30:10.781Z,77
2023-05-22T08:31:19.145Z,77
2023-05-22T08:32:28.230Z,79.5
2023-05-22T08:33:37.490Z,78
2023-05-22T08:34:46.581Z,77.5
2023-05-22T08:35:55.744Z,75.5
2023-05-22T08:37:04.950Z,75.5
2023-05-22T08:38:14.132Z,76
2023-05-22T08:39:23.158Z,76.5
2023-05-22T08:40:32.379Z,78
2023-05-22T08:41:41.695Z,78.5
2023-05-22T08:42:50.684Z,78
2023-05-22T08:44:00.004Z,79
2023-05-22T08:45:09.026Z,78.5
2023-05-22T08:46:17.364Z,78
2023-05-22T08:47:26.439Z,78
2023-05-22T08:48:35.568Z,75.5
2023-05-22T08:49:44.780Z,76
2023-05-22T08:50:54.056Z,78
2023-05-22T08:52:03.178Z,79.5
2023-05-22T08:53:11.406Z,75.5
2023-05-22T08:54:19.480Z,76.5
2023-05-22T08:55:27.867Z,78.5
2023-05-22T08:56:37.009Z,78.5
2023-05-22T08:57:46.052Z,78.5
2023-05-22T08:58:55.219Z,76
2023-05-22T09:00:04.427Z,79
2023-05-22T09:01:13.686Z,78
2023-05-22T09:02:22.705Z,75.5
2023-05-22T09:03:31.869Z,76
2023-05-22T09:04:41.045Z,75.5
2023-05-22T09:05:50.229Z,76.5
2023-05-22T09:06:59.388Z,75.5
2023-05-22T09:08:08.568Z,77
2023-05-22T09:09:17.743Z,74
2023-05-22T09:10:25.925Z,76
2023-05-22T09:11:35.172Z,75
2023-05-22T09:12:44.278Z,75.5
2023-05-22T09:13:53.665Z,72.5
2023-05-22T09:15:02.615Z,74
2023-05-22T09:16:11.940Z,74.5
2023-05-22T09:17:21.070Z,75
2023-05-22T09:18:30.316Z,75
2023-05-22T09:19:38.477Z,78.5
2023-05-22T09:20:46.662Z,73
2023-05-22T09:21:55.830Z,73
2023-05-22T09:23:05.107Z,72.5
2023-05-22T09:24:14.214Z,73.5
2023-05-22T09:25:23.387Z,72.5
2023-05-22T09:26:32.404Z,73.5
2023-05-22T09:27:41.559Z,75.5
2023-05-22T09:28:50.940Z,75
2023-05-22T09:30:00.030Z,74
2023-05-22T09:31:09.174Z,74.5
2023-05-22T09:32:18.410Z,78
2023-05-22T09:33:27.495Z,76.5
2023-05-22T09:34:36.651Z,77
2023-05-22T09:35:44.900Z,74.5
2023-05-22T09:36:54.136Z,73
2023-05-22T09:38:03.144Z,72.5
2023-05-22T09:39:12.413Z,75
2023-05-22T09:40:21.504Z,72
2023-05-22T09:41:30.779Z,73.5
2023-05-22T09:42:39.010Z,70
2023-05-22T09:43:47.076Z,71
2023-05-22T09:44:56.231Z,74
2023-05-22T09:46:05.530Z,73.5
2023-05-22T09:47:14.693Z,73.5
2023-05-22T09:48:23.750Z,74.5
2023-05-22T09:49:33.003Z,74
2023-05-22T09:50:42.127Z,74
2023-05-22T09:51:51.437Z,74
2023-05-22T09:53:00.444Z,72
2023-05-22T09:54:09.655Z,71.5
2023-05-22T09:55:18.920Z,74
2023-05-22T09:56:28.106Z,72.5
2023-05-22T09:57:37.121Z,71
2023-05-22T09:58:45.380Z,76
2023-05-22T09:59:54.486Z,74
2023-05-22T10:01:03.778Z,74
2023-05-22T10:02:12.829Z,74
2023-05-22T10:03:22.187Z,71.5
2023-05-22T10:04:31.287Z,72.5
2023-05-22T10:05:39.463Z,72.5
2023-05-22T10:06:47.718Z,72
2023-05-22T10:07:55.912Z,75
2023-05-22T10:09:04.977Z,69.5
2023-05-22T10:10:14.252Z,71
2023-05-22T10:11:23.377Z,69.5
2023-05-22T10:12:32.560Z,68
2023-05-22T10:13:41.670Z,68
2023-05-22T10:14:50.817Z,68.5
2023-05-22T10:16:00.129Z,71.5
2023-05-22T10:17:09.176Z,74.5
2023-05-22T10:18:18.468Z,75
2023-05-22T10:19:27.578Z,74.5
2023-05-22T10:20:36.660Z,78
2023-05-22T10:21:45.872Z,74.5
2023-05-22T10:22:54.068Z,76
2023-05-22T10:24:03.197Z,75.5
2023-05-22T10:25:12.503Z,76
2023-05-22T10:26:21.537Z,77.5
2023-05-22T10:27:30.820Z,75.5
2023-05-22T10:28:40.066Z,75
2023-05-22T10:29:48.236Z,75.5
2023-05-22T10:30:57.304Z,72.5
2023-05-22T10:32:05.431Z,71.5
2023-05-22T10:33:13.616Z,75.5
2023-05-22T10:34:22.872Z,76.5
2023-05-22T10:35:32.152Z,75
2023-05-22T10:36:41.185Z,75
2023-05-22T10:40:08.803Z,72.5
2023-05-22T10:41:17.992Z,72.5
2023-05-22T10:42:27.073Z,72
2023-05-22T10:43:36.287Z,72
2023-05-22T10:44:45.461Z,74
2023-05-22T10:45:53.546Z,72.5
2023-05-22T10:47:01.868Z,69
2023-05-22T10:48:11.091Z,70
2023-05-22T10:49:20.254Z,72
2023-05-22T10:50:29.295Z,71.5
2023-05-22T10:51:38.420Z,73.5
2023-05-22T10:52:47.620Z,73.5
2023-05-22T10:53:56.783Z,74
2023-05-22T10:55:05.935Z,72
2023-05-22T10:56:15.117Z,72.5
2023-05-22T10:57:23.433Z,71.5
2023-05-22T10:58:31.497Z,71
2023-05-22T10:59:40.794Z,74
2023-05-22T11:00:49.907Z,72
2023-05-22T11:01:59.019Z,71.5
2023-05-22T11:03:08.236Z,73.5
2023-05-22T11:04:17.389Z,74.5
2023-05-22T11:05:26.583Z,74
2023-05-22T11:06:35.717Z,74
2023-05-22T11:07:44.886Z,73
2023-05-22T11:08:54.081Z,72.5
2023-05-22T11:10:03.218Z,73
2023-05-22T11:11:12.602Z,71.5
2023-05-22T11:13:30.779Z,69
2023-05-22T11:14:39.002Z,70
2023-05-22T11:15:48.138Z,70.5
2023-05-22T11:16:57.289Z,67
2023-05-22T11:18:06.460Z,69.5
2023-05-22T11:19:15.794Z,72.5
2023-05-22T11:20:24.921Z,72
2023-05-22T11:21:33.125Z,76.5
2023-05-22T11:22:42.247Z,69
2023-05-22T11:23:50.531Z,69.5
2023-05-22T11:24:59.610Z,67.5
2023-05-22T11:26:08.813Z,70
2023-05-22T11:27:17.858Z,70
2023-05-22T11:28:27.220Z,68.5
2023-05-22T11:29:36.201Z,67.5
2023-05-22T11:30:45.373Z,66.5
2023-05-22T11:31:54.534Z,66
2023-05-22T11:33:03.722Z,69
2023-05-22T11:34:12.907Z,67
2023-05-22T11:35:22.073Z,64
2023-05-22T11:36:31.237Z,65
2023-05-22T11:37:40.415Z,64.5
2023-05-22T11:38:48.601Z,66
2023-05-22T11:39:57.770Z,66
2023-05-22T11:41:06.965Z,67
2023-05-22T11:42:16.130Z,62.5
2023-05-22T11:44:34.469Z,62.5
2023-05-22T11:45:42.656Z,65
2023-05-22T11:46:50.855Z,68.5
2023-05-22T11:47:59.055Z,68
2023-05-22T11:49:08.217Z,66.5
2023-05-22T11:50:17.388Z,70
2023-05-22T11:51:26.569Z,69.5
2023-05-22T11:52:35.736Z,72
2023-05-22T11:53:44.903Z,70.5
2023-05-22T11:54:54.094Z,70
2023-05-22T11:56:03.246Z,73
2023-05-22T11:57:12.419Z,71
2023-05-22T11:58:21.585Z,69
2023-05-22T11:59:30.755Z,66.5
2023-05-22T12:00:39.945Z,68
2023-05-22T12:01:49.106Z,67
2023-05-22T12:02:57.286Z,64.5
2023-05-22T12:04:06.478Z,65
2023-05-22T12:05:15.624Z,68.5
2023-05-22T12:06:24.798Z,66.5
2023-05-22T12:07:33.969Z,67.5
2023-05-22T12:08:43.151Z,65.5
2023-05-22T12:09:51.407Z,67
2023-05-22T12:10:59.528Z,68
2023-05-22T12:12:08.717Z,68.5
2023-05-22T12:13:17.865Z,68
2023-05-22T12:14:27.050Z,66
2023-05-22T12:15:36.215Z,65
2023-05-22T12:16:45.410Z,68.5
2023-05-22T12:17:54.561Z,68
2023-05-22T12:19:03.738Z,68.5
2023-05-22T12:20:12.917Z,66.5
2023-05-22T12:21:21.096Z,63.5
2023-05-22T12:22:30.267Z,63.5
2023-05-22T12:23:39.440Z,68
2023-05-22T12:24:48.606Z,65.5
2023-05-22T12:25:57.784Z,67.5
2023-05-22T12:27:06.965Z,67
2023-05-22T12:28:16.120Z,67.5
2023-05-22T12:29:25.300Z,68.5
2023-05-22T12:30:34.484Z,71.5
2023-05-22T12:31:43.645Z,71
2023-05-22T12:32:51.837Z,70.5
2023-05-22T12:34:00.027Z,70.5
2023-05-22T12:35:09.205Z,71.5
2023-05-22T12:36:18.370Z,71
2023-05-22T12:37:27.539Z,69
2023-05-22T12:38:36.730Z,68.5
2023-05-22T12:39:45.910Z,68.5
2023-05-22T12:40:55.070Z,71.5
2023-05-22T12:42:04.244Z,69
2023-05-22T12:43:13.427Z,71
2023-05-22T12:44:22.597Z,70.5
2023-05-22T12:45:31.840Z,72
2023-05-22T12:46:40.952Z,72.5
2023-05-22T12:47:50.111Z,72
2023-05-22T12:48:58.291Z,72.5
2023-05-22T12:50:07.482Z,74.5
2023-05-22T12:51:16.648Z,71.5
2023-05-22T12:52:25.823Z,73
2023-05-22T12:53:35.012Z,72.5
2023-05-22T12:54:44.164Z,72.5
2023-05-22T12:55:53.331Z,72.5
2023-05-22T12:57:02.502Z,72
2023-05-22T12:58:11.673Z,71.5
2023-05-22T12:59:19.882Z,66
2023-05-22T13:00:28.072Z,67.5
2023-05-22T13:01:37.244Z,66.5
2023-05-22T13:02:46.414Z,67.5
2023-05-22T13:03:55.583Z,67
2023-05-22T13:05:04.770Z,66.5
2023-05-22T13:06:13.931Z,65
2023-05-22T13:07:23.100Z,66
2023-05-22T13:08:32.276Z,66.5
2023-05-22T13:09:41.449Z,66.5
2023-05-22T13:10:50.622Z,64
2023-05-22T13:11:59.787Z,65
2023-05-22T13:13:08.956Z,66.5
2023-05-22T13:14:18.142Z,67
2023-05-22T13:15:27.304Z,66.5
2023-05-22T13:16:35.509Z,67.5
2023-05-22T13:17:44.676Z,69
2023-05-22T13:18:53.841Z,71.5
2023-05-22T13:20:03.027Z,68.5
2023-05-22T13:21:12.195Z,68
2023-05-22T13:22:20.383Z,68.5
2023-05-22T13:23:28.582Z,66.5
2023-05-22T13:24:36.774Z,64
2023-05-22T13:25:45.937Z,63
2023-05-22T13:26:55.107Z,61
2023-05-22T13:28:04.293Z,63
2023-05-22T13:29:13.450Z,61.5
2023-05-22T13:30:22.618Z,63.5
2023-05-22T13:31:31.799Z,65.5
2023-05-22T13:32:40.966Z,66.5
2023-05-22T13:33:50.150Z,66
2023-05-22T13:34:59.317Z,69.5
2023-05-22T13:36:08.507Z,67.5
2023-05-22T13:37:17.662Z,69
2023-05-22T13:38:26.845Z,69
2023-05-22T13:39:35.048Z,69.5
2023-05-22T13:40:44.204Z,67.5
2023-05-22T13:41:53.378Z,67
2023-05-22T13:43:02.542Z,67
2023-05-22T13:44:11.712Z,67
2023-05-22T13:45:20.897Z,65
2023-05-22T13:46:29.112Z,66.5
2023-05-22T13:47:37.285Z,67
2023-05-22T13:48:45.475Z,69
2023-05-22T13:49:54.640Z,69
2023-05-22T13:51:03.805Z,68.5
2023-05-22T13:52:12.994Z,69
2023-05-22T13:53:22.160Z,69.5
2023-05-22T13:54:31.338Z,67.5
2023-05-22T13:55:40.514Z,68.5
2023-05-22T13:56:49.683Z,66.5
2023-05-22T13:57:58.854Z,68
2023-05-22T13:59:08.043Z,67.5
2023-05-22T14:00:17.193Z,67
2023-05-22T14:01:26.390Z,63
2023-05-22T14:02:35.536Z,64
2023-05-22T14:03:43.733Z,66.5
2023-05-22T14:04:52.912Z,67
2023-05-22T14:06:02.074Z,66
2023-05-22T14:07:11.256Z,69.5
2023-05-22T14:08:20.447Z,69
2023-05-22T14:09:29.587Z,70
2023-05-22T14:10:38.771Z,69
2023-05-22T14:11:47.923Z,67
2023-05-22T14:12:57.111Z,66
2023-05-22T14:14:06.288Z,67.5
2023-05-22T14:15:15.454Z,65
2023-05-22T14:16:24.626Z,66
2023-05-22T14:17:33.795Z,65.5
2023-05-22T14:18:41.982Z,64
2023-05-22T14:19:50.179Z,64.5
2023-05-22T14:20:59.351Z,64.5
2023-05-22T14:22:08.524Z,65.5
2023-05-22T14:23:17.700Z,66
2023-05-22T14:24:26.865Z,65
2023-05-22T14:25:36.042Z,67.5
2023-05-22T14:26:45.196Z,66.5
2023-05-22T14:27:54.377Z,67
2023-05-22T14:29:03.538Z,66
2023-05-22T14:30:12.725Z,63.5
2023-05-22T14:31:21.913Z,63.5
2023-05-22T14:32:31.060Z,62.5
2023-05-22T14:33:40.255Z,61
2023-05-22T14:34:48.442Z,63
2023-05-22T14:35:57.603Z,65
2023-05-22T14:37:06.784Z,64.5
2023-05-22T14:38:15.950Z,65.5
2023-05-22T14:39:25.136Z,60.5
2023-05-22T14:40:34.303Z,63
2023-05-22T14:41:42.481Z,59.5
2023-05-22T14:42:50.688Z,60
2023-05-22T14:43:58.868Z,58.5
2023-05-22T14:45:08.054Z,57.5
2023-05-22T14:46:17.220Z,61
2023-05-22T14:47:26.394Z,58
2023-05-22T14:48:35.568Z,58.5
2023-05-22T14:49:44.743Z,59.5
2023-05-22T14:50:53.911Z,57.5
2023-05-22T14:52:03.078Z,60
2023-05-22T14:53:12.256Z,59
2023-05-22T14:54:21.436Z,55.5
2023-05-22T14:55:30.582Z,59
2023-05-22T14:56:39.781Z,57.5
2023-05-22T14:57:48.942Z,56
2023-05-22T14:58:57.154Z,58
2023-05-22T15:00:06.321Z,58.5
2023-05-22T15:01:15.491Z,57.5
2023-05-22T15:02:24.665Z,61.5
2023-05-22T15:03:33.830Z,60
2023-05-22T15:04:43.019Z,58.5
2023-05-22T15:05:51.204Z,60
2023-05-22T15:07:00.381Z,62
2023-05-22T15:08:08.566Z,63
2023-05-22T15:09:17.724Z,64
2023-05-22T15:10:26.908Z,61.5
2023-05-22T15:11:36.089Z,62.5
2023-05-22T15:12:45.267Z,63
2023-05-22T15:13:54.429Z,60.5
2023-05-22T15:15:03.602Z,64.5
2023-05-22T15:16:12.768Z,60
2023-05-22T15:17:21.958Z,62.5
2023-05-22T15:18:31.113Z,60
2023-05-22T15:19:40.288Z,63.5
2023-05-22T15:20:49.464Z,59.5
2023-05-22T15:21:58.634Z,62.5
2023-05-22T15:23:06.858Z,58.5
2023-05-22T15:24:15.990Z,59
2023-05-22T15:25:25.160Z,59
2023-05-22T15:26:34.338Z,61
2023-05-22T15:27:43.542Z,60.5
2023-05-22T15:28:51.705Z,58.5
2023-05-22T15:29:59.895Z,58.5
2023-05-22T15:31:09.073Z,63.5
2023-05-22T15:32:17.260Z,57.5
2023-05-22T15:33:26.441Z,59
2023-05-22T15:34:35.625Z,57.5
2023-05-22T15:35:44.780Z,59
2023-05-22T15:36:53.946Z,58
2023-05-22T15:38:03.116Z,58
2023-05-22T15:39:12.304Z,62
2023-05-22T15:40:21.475Z,61.5
2023-05-22T15:41:30.642Z,58
2023-05-22T15:42:39.828Z,59.5
2023-05-22T15:43:49.112Z,63.5
2023-05-22T15:44:58.224Z,59.5
2023-05-22T15:46:07.333Z,61
2023-05-22T15:47:15.529Z,61
2023-05-22T15:48:24.697Z,58
2023-05-22T15:49:33.871Z,59
2023-05-22T15:50:43.042Z,61
2023-05-22T15:51:52.209Z,61.5
2023-05-22T15:53:01.388Z,60
2023-05-22T15:54:10.568Z,63.5
2023-05-22T15:55:19.739Z,62.5
2023-05-22T15:56:28.936Z,63.5
2023-05-22T15:57:38.084Z,63.5
2023-05-22T15:58:47.271Z,63.5
2023-05-22T15:59:56.418Z,66.5
2023-05-22T16:01:05.601Z,69
2023-05-22T16:02:13.789Z,70.5